Time;durP1;ratioP1;P1;durP2;ratioP2;P2;SDS_P1;SDS_P2;PMS_P1;PMS_P2;Temp;Humidity;BMP_temperature;BMP_pressure;BME280_temperature;BME280_humidity;BME280_pressure;Samples;Min_cycle;Max_cycle;Signal;HPM_P1;HPM_P2
2023/06/04 00:01:55;;;;;;;1.50;0.90;;;13.20;99.90;;;;;;5015038;28;20038;-67
2023/06/04 00:04:22;;;;;;;1.87;0.70;;;13.20;99.90;;;;;;5029870;28;20058;-76
2023/06/04 00:06:49;;;;;;;1.05;0.60;;;13.20;99.90;;;;;;5001857;28;20370;-67
2023/06/04 00:09:15;;;;;;;0.80;0.70;;;13.10;99.90;;;;;;5015329;28;20452;-68
2023/06/04 00:11:41;;;;;;;3.58;1.00;;;13.10;99.90;;;;;;5014382;28;20424;-67
2023/06/04 00:14:07;;;;;;;4.73;0.90;;;13.10;99.90;;;;;;5014157;28;20022;-67
2023/06/04 00:16:35;;;;;;;1.20;0.97;;;13.10;99.90;;;;;;5014656;28;20428;-68
2023/06/04 00:19:02;;;;;;;1.42;0.80;;;13.00;99.90;;;;;;5015198;28;20071;-68
2023/06/04 00:21:27;;;;;;;2.55;1.35;;;12.90;99.90;;;;;;5014100;28;20045;-69
2023/06/04 00:23:53;;;;;;;3.33;0.67;;;12.90;99.90;;;;;;5014202;28;20492;-67
2023/06/04 00:26:20;;;;;;;1.17;0.60;;;12.90;99.90;;;;;;5014421;28;20037;-68
2023/06/04 00:28:46;;;;;;;3.60;0.60;;;12.90;99.90;;;;;;5013943;28;20022;-68
2023/06/04 00:31:12;;;;;;;4.03;1.23;;;12.80;99.90;;;;;;5022816;28;20080;-69
2023/06/04 00:33:39;;;;;;;1.48;0.65;;;12.80;99.90;;;;;;5014179;28;20263;-67
2023/06/04 00:36:05;;;;;;;1.95;0.60;;;12.70;99.90;;;;;;5015153;28;20104;-67
2023/06/04 00:38:31;;;;;;;0.73;0.73;;;12.70;99.90;;;;;;5013800;28;20026;-76
2023/06/04 00:40:57;;;;;;;1.00;0.80;;;12.60;99.90;;;;;;5014761;28;20030;-66
2023/06/04 00:43:25;;;;;;;2.13;0.85;;;12.50;99.90;;;;;;5014770;28;20426;-66
2023/06/04 00:45:52;;;;;;;1.20;0.90;;;12.20;99.90;;;;;;5014449;28;20065;-66
2023/06/04 00:48:18;;;;;;;0.88;0.65;;;12.00;99.90;;;;;;5014619;28;20061;-66
2023/06/04 00:50:44;;;;;;;2.30;1.05;;;11.70;99.90;;;;;;5012918;28;20061;-78
2023/06/04 00:53:10;;;;;;;2.13;0.80;;;11.50;99.90;;;;;;5013420;28;20057;-66
2023/06/04 00:55:36;;;;;;;2.47;1.10;;;11.30;99.90;;;;;;5013554;28;20427;-67
2023/06/04 00:58:04;;;;;;;2.43;1.00;;;11.40;99.90;;;;;;5014074;28;20290;-66
2023/06/04 01:00:31;;;;;;;3.55;0.80;;;11.50;99.90;;;;;;5029281;28;20042;-66
2023/06/04 01:03:02;;;;;;;2.15;1.02;;;11.50;99.90;;;;;;5013873;28;20025;-66
2023/06/04 01:05:43;;;;;;;2.63;1.20;;;11.60;99.90;;;;;;5014275;28;20381;-66
2023/06/04 01:08:10;;;;;;;0.95;0.85;;;11.50;99.90;;;;;;5013918;28;20029;-66
2023/06/04 01:10:36;;;;;;;2.80;0.82;;;11.50;99.90;;;;;;5014499;28;20022;-66
2023/06/04 01:13:02;;;;;;;1.40;0.80;;;11.50;99.90;;;;;;5021117;28;20099;-66
2023/06/04 01:15:27;;;;;;;2.70;1.03;;;11.40;99.90;;;;;;5029710;28;20026;-66
2023/06/04 01:18:02;;;;;;;1.60;0.93;;;11.40;99.90;;;;;;5028337;28;20113;-66
2023/06/04 01:20:37;;;;;;;1.08;0.68;;;11.30;99.90;;;;;;5022988;28;20442;-66
2023/06/04 01:23:15;;;;;;;1.40;0.85;;;11.10;99.90;;;;;;5020201;28;20305;-76
2023/06/04 01:25:43;;;;;;;1.85;1.02;;;11.10;99.90;;;;;;5024313;28;20018;-77
2023/06/04 01:28:15;;;;;;;2.50;0.80;;;10.80;99.90;;;;;;5030639;28;20022;-77
2023/06/04 01:30:45;;;;;;;2.80;1.75;;;10.80;99.90;;;;;;5018415;28;20022;-77
2023/06/04 01:33:16;;;;;;;2.30;1.00;;;10.80;99.90;;;;;;5029514;28;20044;-77
2023/06/04 01:35:43;;;;;;;3.28;0.77;;;10.70;99.90;;;;;;5025597;28;20076;-65
2023/06/04 01:38:10;;;;;;;1.00;0.90;;;10.70;99.90;;;;;;5031687;28;20684;-65
2023/06/04 01:40:36;;;;;;;0.90;0.73;;;10.70;99.90;;;;;;5029445;28;20034;-67
2023/06/04 01:43:03;;;;;;;1.90;0.77;;;10.70;99.90;;;;;;5035599;28;20021;-66
2023/06/04 01:45:29;;;;;;;;;;;10.70;99.90;;;;;;5037711;28;20091;-65
2023/06/04 01:47:55;;;;;;;0.98;0.80;;;10.60;99.90;;;;;;5023652;28;19913;-65
2023/06/04 01:50:21;;;;;;;0.85;0.70;;;10.70;99.90;;;;;;5033254;28;20040;-65
2023/06/04 01:52:47;;;;;;;4.03;1.13;;;10.70;99.90;;;;;;5029805;28;20095;-65
2023/06/04 01:55:15;;;;;;;0.90;0.77;;;10.60;99.90;;;;;;5028098;28;20622;-65
2023/06/04 01:57:43;;;;;;;1.02;0.93;;;10.60;99.90;;;;;;5034101;28;20030;-65
2023/06/04 02:00:11;;;;;;;0.95;0.80;;;10.50;99.90;;;;;;5025536;28;20034;-65
2023/06/04 02:02:38;;;;;;;2.22;1.20;;;10.40;99.90;;;;;;5031867;28;20022;-66
2023/06/04 02:05:07;;;;;;;;;;;10.40;99.90;;;;;;5030830;28;20108;-76
2023/06/04 02:07:38;;;;;;;0.73;0.70;;;10.40;99.90;;;;;;5033903;28;19975;-65
2023/06/04 02:10:08;;;;;;;4.13;0.95;;;10.30;99.90;;;;;;5030018;28;20017;-65
2023/06/04 02:12:37;;;;;;;2.97;1.00;;;10.30;99.90;;;;;;5029069;28;20037;-78
2023/06/04 02:15:03;;;;;;;1.63;0.90;;;10.30;99.90;;;;;;5026939;28;20021;-65
2023/06/04 02:17:32;;;;;;;;;;;10.30;99.90;;;;;;5034310;28;20031;-65
2023/06/04 02:19:58;;;;;;;1.73;1.00;;;10.20;99.90;;;;;;5031946;28;19913;-77
2023/06/04 02:22:25;;;;;;;0.80;0.80;;;10.30;99.90;;;;;;5029058;28;20426;-66
2023/06/04 02:24:50;;;;;;;1.48;1.00;;;10.30;99.90;;;;;;5025671;28;20316;-65
2023/06/04 02:27:17;;;;;;;2.40;1.20;;;10.20;99.90;;;;;;5029343;28;20022;-66
2023/06/04 02:29:42;;;;;;;1.23;0.82;;;10.20;99.90;;;;;;5029584;28;20049;-65
2023/06/04 02:32:09;;;;;;;1.73;0.83;;;10.10;99.90;;;;;;5015559;28;20072;-65
2023/06/04 02:34:35;;;;;;;1.27;1.13;;;10.10;99.90;;;;;;5016689;28;20034;-65
2023/06/04 02:37:02;;;;;;;1.90;1.10;;;10.10;99.90;;;;;;5014413;28;20045;-77
2023/06/04 02:39:28;;;;;;;1.83;1.25;;;10.10;99.90;;;;;;5015982;28;20040;-66
2023/06/04 02:41:53;;;;;;;3.93;1.07;;;10.20;99.90;;;;;;5016807;28;20439;-65
2023/06/04 02:44:20;;;;;;;2.37;0.83;;;10.10;99.90;;;;;;5016677;28;20021;-65
2023/06/04 02:46:45;;;;;;;1.93;0.70;;;10.20;99.90;;;;;;5016269;28;20113;-65
2023/06/04 02:49:14;;;;;;;2.10;1.17;;;10.20;99.90;;;;;;5016254;28;20354;-66
2023/06/04 02:51:40;;;;;;;2.40;1.13;;;10.30;99.90;;;;;;5013151;28;20075;-65
2023/06/04 02:54:06;;;;;;;3.45;1.42;;;10.50;99.90;;;;;;5016539;28;20022;-65
2023/06/04 02:56:33;;;;;;;1.23;1.13;;;10.40;99.90;;;;;;5015941;28;20045;-65
2023/06/04 02:58:59;;;;;;;1.35;1.25;;;10.60;99.90;;;;;;5016267;28;20025;-65
2023/06/04 03:01:26;;;;;;;1.27;1.07;;;10.70;99.90;;;;;;5014129;28;20310;-66
2023/06/04 03:03:53;;;;;;;2.13;1.30;;;10.80;99.90;;;;;;5011817;28;20021;-68
2023/06/04 03:06:20;;;;;;;2.30;1.10;;;10.90;99.90;;;;;;5016021;28;20033;-66
2023/06/04 03:08:47;;;;;;;1.67;1.20;;;11.00;99.90;;;;;;5014849;28;20033;-66
2023/06/04 03:11:13;;;;;;;1.30;0.95;;;11.10;99.90;;;;;;5015900;28;20034;-66
2023/06/04 03:13:39;;;;;;;3.50;1.33;;;11.10;99.90;;;;;;5015660;28;20472;-68
2023/06/04 03:16:09;;;;;;;1.13;1.03;;;11.20;99.90;;;;;;5016020;28;20075;-67
2023/06/04 03:18:42;;;;;;;2.78;1.30;;;11.20;99.90;;;;;;5015075;28;20034;-67
2023/06/04 03:21:08;;;;;;;1.90;1.10;;;11.10;99.90;;;;;;5014984;28;20026;-69
2023/06/04 03:23:35;;;;;;;2.33;1.10;;;11.10;99.90;;;;;;5016016;28;20034;-67
2023/06/04 03:26:02;;;;;;;1.75;1.08;;;11.10;99.90;;;;;;5014783;28;20033;-67
2023/06/04 03:28:28;;;;;;;3.65;1.40;;;11.10;99.90;;;;;;5015534;28;20096;-76
2023/06/04 03:30:54;;;;;;;3.30;1.07;;;11.10;99.90;;;;;;5015276;28;20076;-67
2023/06/04 03:33:20;;;;;;;2.43;0.90;;;11.10;99.90;;;;;;5016073;28;20117;-67
2023/06/04 03:35:47;;;;;;;2.72;1.60;;;11.00;99.90;;;;;;5015010;28;20041;-67
2023/06/04 03:38:15;;;;;;;6.55;1.42;;;11.00;99.90;;;;;;5014312;28;20116;-66
2023/06/04 03:40:42;;;;;;;1.77;0.95;;;11.10;99.90;;;;;;5015111;28;20109;-67
2023/06/04 03:43:08;;;;;;;;;;;11.10;99.90;;;;;;5020673;28;20025;-66
2023/06/04 03:45:33;;;;;;;3.25;1.17;;;11.10;99.90;;;;;;5025904;28;19920;-78
2023/06/04 03:47:59;;;;;;;2.57;1.30;;;11.20;99.90;;;;;;5025275;28;20040;-66
2023/06/04 03:50:25;;;;;;;3.50;0.87;;;11.20;99.90;;;;;;5026535;28;20034;-68
2023/06/04 03:52:51;;;;;;;4.97;1.30;;;11.20;99.90;;;;;;5026395;28;20333;-67
2023/06/04 03:55:18;;;;;;;1.80;1.40;;;11.20;99.90;;;;;;5015757;28;20040;-68
2023/06/04 03:57:44;;;;;;;2.28;1.00;;;11.20;99.90;;;;;;5026502;28;20034;-68
2023/06/04 04:00:12;;;;;;;1.70;0.93;;;11.20;99.90;;;;;;5020028;28;20033;-68
2023/06/04 04:02:39;;;;;;;1.70;1.40;;;11.30;99.90;;;;;;5026456;28;20677;-66
2023/06/04 04:05:06;;;;;;;2.65;1.15;;;11.30;99.90;;;;;;5026391;28;20030;-67
2023/06/04 04:07:32;;;;;;;1.20;1.00;;;11.30;99.90;;;;;;5025256;28;20049;-67
2023/06/04 04:09:57;;;;;;;2.13;1.37;;;11.30;99.90;;;;;;5028386;28;20057;-67
2023/06/04 04:12:23;;;;;;;3.20;0.87;;;11.30;99.90;;;;;;5031621;28;20030;-78
2023/06/04 04:14:49;;;;;;;3.53;1.53;;;11.40;99.90;;;;;;5026644;28;20498;-68
2023/06/04 04:17:15;;;;;;;1.90;1.10;;;11.40;99.90;;;;;;5028394;28;20435;-67
2023/06/04 04:19:40;;;;;;;1.67;1.20;;;11.50;99.90;;;;;;5025629;28;20286;-67
2023/06/04 04:22:06;;;;;;;2.60;1.23;;;11.50;99.90;;;;;;5018804;28;20400;-67
2023/06/04 04:24:35;;;;;;;2.00;1.17;;;11.60;99.90;;;;;;5027291;28;20029;-68
2023/06/04 04:27:03;;;;;;;4.07;1.50;;;11.60;99.90;;;;;;5024298;28;20037;-67
2023/06/04 04:29:32;;;;;;;7.03;1.10;;;11.60;99.90;;;;;;5017791;28;20030;-68
2023/06/04 04:32:00;;;;;;;7.53;1.58;;;11.60;99.90;;;;;;5020071;28;20033;-67
2023/06/04 04:34:26;;;;;;;4.72;1.25;;;11.70;99.90;;;;;;5021595;28;20029;-68
2023/06/04 04:36:52;;;;;;;1.52;1.00;;;11.70;99.90;;;;;;5021017;28;20317;-75
2023/06/04 04:39:25;;;;;;;3.40;1.50;;;11.80;99.90;;;;;;5024191;28;20025;-67
2023/06/04 04:41:51;;;;;;;5.28;1.58;;;11.90;99.90;;;;;;5009888;28;20113;-66
2023/06/04 04:44:17;;;;;;;3.75;1.38;;;11.90;99.90;;;;;;5011097;28;20026;-67
2023/06/04 04:46:43;;;;;;;2.15;1.00;;;12.00;99.90;;;;;;5013767;28;20026;-66
2023/06/04 04:49:09;;;;;;;5.55;1.60;;;12.00;99.90;;;;;;5014761;28;20022;-66
2023/06/04 04:51:36;;;;;;;5.87;1.77;;;12.10;99.90;;;;;;5013963;28;20332;-66
2023/06/04 04:54:02;;;;;;;2.20;1.23;;;12.10;99.90;;;;;;5014788;28;20313;-78
2023/06/04 04:56:28;;;;;;;6.53;1.35;;;12.20;99.90;;;;;;5013070;28;20046;-66
2023/06/04 04:58:57;;;;;;;3.15;1.63;;;12.20;99.90;;;;;;5014195;28;20038;-67
2023/06/04 05:01:25;;;;;;;4.38;1.40;;;12.30;99.90;;;;;;5015162;28;20113;-67
2023/06/04 05:03:51;;;;;;;4.40;1.10;;;12.30;99.90;;;;;;5025967;28;20036;-66
2023/06/04 05:06:16;;;;;;;1.23;1.03;;;12.40;99.90;;;;;;5022396;28;20026;-67
2023/06/04 05:08:43;;;;;;;2.37;1.13;;;12.50;99.90;;;;;;5022050;28;20013;-67
2023/06/04 05:11:09;;;;;;;8.95;2.30;;;12.50;99.90;;;;;;5023237;28;20034;-67
2023/06/04 05:13:34;;;;;;;2.67;1.10;;;12.60;99.90;;;;;;5019691;28;20083;-65
2023/06/04 05:16:06;;;;;;;2.70;1.63;;;12.70;99.90;;;;;;5022744;28;20076;-67
2023/06/04 05:18:40;;;;;;;1.98;1.45;;;12.70;99.90;;;;;;5024169;28;20068;-71
2023/06/04 05:21:06;;;;;;;1.70;1.08;;;12.80;99.90;;;;;;5022650;28;20443;-67
2023/06/04 05:23:34;;;;;;;2.67;1.20;;;12.90;99.90;;;;;;5024759;28;20034;-66
2023/06/04 05:26:04;;;;;;;2.13;1.13;;;12.90;99.90;;;;;;5024912;28;20421;-67
2023/06/04 05:28:33;;;;;;;8.85;1.73;;;13.00;99.90;;;;;;5023247;28;20361;-68
2023/06/04 05:30:59;;;;;;;3.72;1.48;;;13.00;99.90;;;;;;5025223;28;21221;-67
2023/06/04 05:33:30;;;;;;;3.65;1.30;;;13.10;99.90;;;;;;5022532;28;20117;-66
2023/06/04 05:35:57;;;;;;;2.92;1.20;;;13.20;99.90;;;;;;5017257;28;20041;-66
2023/06/04 05:38:27;;;;;;;3.97;1.38;;;13.20;99.90;;;;;;5017454;28;20317;-67
2023/06/04 05:40:55;;;;;;;2.50;1.38;;;13.30;99.90;;;;;;5019804;28;20421;-66
2023/06/04 05:43:21;;;;;;;2.95;1.25;;;13.30;99.90;;;;;;5017634;28;20022;-68
2023/06/04 05:45:48;;;;;;;3.53;1.55;;;13.40;99.90;;;;;;5015500;28;20037;-66
2023/06/04 05:48:14;;;;;;;8.77;1.90;;;13.50;99.90;;;;;;5015490;28;20203;-67
2023/06/04 05:50:40;;;;;;;3.47;1.42;;;13.50;99.90;;;;;;5007610;28;20069;-78
2023/06/04 05:53:06;;;;;;;1.77;1.33;;;13.50;99.90;;;;;;5014861;28;20424;-66
2023/06/04 05:55:32;;;;;;;3.15;1.10;;;13.60;99.90;;;;;;5017586;28;20096;-67
2023/06/04 05:57:58;;;;;;;3.23;1.00;;;13.70;99.90;;;;;;5031239;28;20371;-67
2023/06/04 06:00:24;;;;;;;6.93;0.83;;;13.70;99.90;;;;;;5018412;28;20278;-77
2023/06/04 06:02:50;;;;;;;3.90;1.30;;;13.80;99.90;;;;;;5015526;28;20027;-67
2023/06/04 06:05:18;;;;;;;5.13;1.10;;;13.90;99.90;;;;;;5029211;28;20298;-68
2023/06/04 06:07:44;;;;;;;4.78;0.90;;;14.00;99.90;;;;;;5031617;28;20491;-68
2023/06/04 06:10:10;;;;;;;5.43;1.08;;;14.00;99.90;;;;;;5026631;28;20037;-67
2023/06/04 06:12:36;;;;;;;5.72;0.88;;;14.00;99.90;;;;;;5032585;28;20402;-67
2023/06/04 06:15:02;;;;;;;3.70;1.33;;;14.10;99.90;;;;;;5025354;28;20037;-67
2023/06/04 06:17:29;;;;;;;7.07;1.07;;;14.20;99.90;;;;;;5026661;28;20034;-76
2023/06/04 06:19:55;;;;;;;3.30;1.65;;;14.20;99.90;;;;;;5024921;28;20030;-66
2023/06/04 06:22:22;;;;;;;1.73;0.70;;;14.20;99.90;;;;;;5023563;28;20412;-65
2023/06/04 06:24:50;;;;;;;3.00;1.42;;;14.30;99.90;;;;;;5027709;28;20030;-67
2023/06/04 06:27:17;;;;;;;2.60;1.25;;;14.40;99.90;;;;;;5021167;28;20033;-65
2023/06/04 06:29:43;;;;;;;0.95;0.80;;;14.40;99.90;;;;;;5027205;28;20056;-67
2023/06/04 06:32:10;;;;;;;1.52;1.35;;;14.50;99.90;;;;;;5022061;28;20111;-65
2023/06/04 06:34:37;;;;;;;;;;;14.50;99.90;;;;;;5022230;28;20048;-69
2023/06/04 06:37:03;;;;;;;4.20;1.05;;;14.50;99.90;;;;;;5020219;28;19995;-67
2023/06/04 06:39:29;;;;;;;5.38;1.73;;;14.60;99.90;;;;;;5025475;28;20036;-67
2023/06/04 06:41:55;;;;;;;2.17;1.00;;;14.60;99.90;;;;;;5019305;28;20026;-66
2023/06/04 06:44:22;;;;;;;1.43;1.00;;;14.70;99.90;;;;;;5019029;28;20036;-67
2023/06/04 06:46:48;;;;;;;3.72;1.13;;;14.90;99.90;;;;;;5023446;28;20447;-68
2023/06/04 06:49:15;;;;;;;3.95;1.25;;;14.90;99.90;;;;;;5018222;28;20044;-67
2023/06/04 06:51:41;;;;;;;4.32;1.27;;;14.90;99.90;;;;;;5018777;28;20021;-73
2023/06/04 06:54:09;;;;;;;3.60;0.90;;;14.90;99.90;;;;;;5022901;28;20037;-66
2023/06/04 06:56:35;;;;;;;1.20;0.73;;;14.90;99.90;;;;;;5018579;28;20049;-66
2023/06/04 06:59:01;;;;;;;1.20;0.77;;;15.00;99.90;;;;;;5018831;28;20026;-65
2023/06/04 07:01:27;;;;;;;2.23;1.00;;;15.00;99.90;;;;;;5021115;28;20362;-66
2023/06/04 07:03:53;;;;;;;1.73;1.33;;;15.00;99.90;;;;;;5018172;28;20022;-67
2023/06/04 07:06:19;;;;;;;1.43;1.27;;;15.10;99.90;;;;;;5017449;28;20278;-77
2023/06/04 07:08:47;;;;;;;2.40;1.73;;;15.20;99.90;;;;;;5020518;28;20021;-76
2023/06/04 07:11:13;;;;;;;5.30;1.38;;;15.10;99.90;;;;;;5012339;28;20108;-67
2023/06/04 07:13:39;;;;;;;15.10;2.67;;;15.10;99.90;;;;;;5021846;28;20372;-67
2023/06/04 07:16:06;;;;;;;3.53;1.70;;;15.20;99.90;;;;;;5017648;28;20113;-66
2023/06/04 07:18:32;;;;;;;4.38;1.52;;;15.10;99.90;;;;;;5019208;28;20017;-67
2023/06/04 07:20:58;;;;;;;5.93;1.58;;;15.10;99.90;;;;;;5016746;28;20030;-66
2023/06/04 07:23:25;;;;;;;4.13;1.87;;;15.10;99.90;;;;;;5022776;28;20033;-67
2023/06/04 07:25:51;;;;;;;4.22;1.52;;;15.10;99.90;;;;;;5016513;28;20353;-77
2023/06/04 07:28:17;;;;;;;2.85;0.93;;;15.10;99.90;;;;;;5018214;28;20037;-65
2023/06/04 07:30:44;;;;;;;3.77;1.30;;;15.20;99.90;;;;;;5019845;28;20034;-67
2023/06/04 07:33:10;;;;;;;3.38;1.15;;;15.30;99.90;;;;;;5016441;28;20026;-67
2023/06/04 07:35:36;;;;;;;2.33;1.10;;;15.30;99.90;;;;;;5029830;28;20030;-65
2023/06/04 07:38:02;;;;;;;2.27;1.47;;;15.40;99.90;;;;;;5023735;28;20428;-66
2023/06/04 07:40:28;;;;;;;4.30;1.50;;;15.50;99.90;;;;;;5022385;28;20652;-68
2023/06/04 07:42:54;;;;;;;4.47;1.10;;;15.50;99.90;;;;;;5018114;28;20278;-80
2023/06/04 07:45:21;;;;;;;3.97;1.25;;;15.50;99.90;;;;;;5018033;28;20363;-67
2023/06/04 07:47:46;;;;;;;2.90;1.15;;;15.50;99.90;;;;;;5016834;28;20080;-65
2023/06/04 07:50:12;;;;;;;4.73;1.37;;;15.60;99.90;;;;;;5022149;28;20025;-67
2023/06/04 07:52:38;;;;;;;4.80;1.40;;;15.70;99.90;;;;;;5022500;28;20021;-68
2023/06/04 07:55:05;;;;;;;6.10;1.33;;;15.70;99.90;;;;;;5024778;28;20394;-66
2023/06/04 07:57:31;;;;;;;5.18;1.13;;;15.80;99.90;;;;;;5018822;28;20060;-67
2023/06/04 07:59:59;;;;;;;1.85;0.90;;;16.00;99.90;;;;;;5014015;28;20535;-68
2023/06/04 08:02:26;;;;;;;1.85;1.23;;;16.10;99.90;;;;;;5019300;28;20153;-67
2023/06/04 08:04:51;;;;;;;;;;;16.10;99.90;;;;;;5017621;28;20417;-66
2023/06/04 08:07:17;;;;;;;1.63;1.10;;;16.20;99.90;;;;;;5016475;28;19920;-67
2023/06/04 08:09:44;;;;;;;1.33;0.87;;;16.30;99.90;;;;;;5018046;28;20265;-75
2023/06/04 08:12:11;;;;;;;1.95;0.88;;;16.30;99.90;;;;;;5022938;28;20427;-68
2023/06/04 08:14:36;;;;;;;2.45;1.08;;;16.10;99.90;;;;;;5016962;28;20030;-68
2023/06/04 08:17:02;;;;;;;2.60;1.43;;;16.00;99.90;;;;;;5020017;28;20032;-66
2023/06/04 08:19:28;;;;;;;5.63;1.20;;;16.20;99.90;;;;;;5022371;28;20026;-67
2023/06/04 08:21:55;;;;;;;5.73;1.70;;;16.30;99.90;;;;;;5021311;28;20056;-68
2023/06/04 08:24:21;;;;;;;7.25;1.60;;;16.40;99.90;;;;;;5019131;28;20037;-68
2023/06/04 08:26:48;;;;;;;1.35;0.95;;;16.40;99.90;;;;;;5018404;28;20137;-68
2023/06/04 08:29:14;;;;;;;2.00;1.00;;;16.50;99.90;;;;;;5018909;28;20125;-81
2023/06/04 08:31:39;;;;;;;3.93;1.90;;;16.60;99.90;;;;;;5019659;28;20121;-67
2023/06/04 08:34:05;;;;;;;6.40;1.20;;;16.90;99.90;;;;;;5036836;28;20261;-84
2023/06/04 08:36:32;;;;;;;3.30;1.20;;;16.90;99.90;;;;;;5017502;28;20408;-67
2023/06/04 08:38:58;;;;;;;4.15;1.55;;;16.70;99.90;;;;;;5023658;28;20423;-65
2023/06/04 08:41:38;;;;;;;0.77;0.77;;;16.70;99.90;;;;;;5022190;28;20036;-83
2023/06/04 08:44:06;;;;;;;3.92;1.45;;;16.60;99.90;;;;;;5021743;28;20065;-68
2023/06/04 08:46:41;;;;;;;2.70;1.17;;;16.70;99.90;;;;;;5020397;28;20025;-67
2023/06/04 08:49:08;;;;;;;6.90;1.60;;;16.80;99.90;;;;;;5012571;28;20022;-66
2023/06/04 08:51:37;;;;;;;;;;;17.00;99.90;;;;;;5024846;28;20637;-68
2023/06/04 08:54:07;;;;;;;2.88;1.48;;;17.00;99.90;;;;;;5018473;28;19905;-67
2023/06/04 08:56:34;;;;;;;3.65;1.48;;;16.80;99.90;;;;;;5022200;28;20452;-68
2023/06/04 08:59:07;;;;;;;4.63;1.65;;;16.80;99.90;;;;;;5015493;28;20109;-73
2023/06/04 09:01:34;;;;;;;4.40;1.50;;;17.10;99.90;;;;;;5022785;28;20026;-66
2023/06/04 09:04:03;;;;;;;3.70;1.50;;;17.10;99.90;;;;;;5016612;28;20034;-68
2023/06/04 09:06:31;;;;;;;8.55;1.85;;;17.20;99.90;;;;;;5020970;28;20018;-68
2023/06/04 09:08:58;;;;;;;3.22;1.33;;;17.10;99.90;;;;;;5022310;28;20041;-67
2023/06/04 09:11:30;;;;;;;3.15;1.50;;;17.10;99.90;;;;;;5016888;28;20038;-79
2023/06/04 09:14:00;;;;;;;3.00;1.38;;;17.10;99.90;;;;;;5016756;28;20030;-71
2023/06/04 09:16:26;;;;;;;4.22;1.88;;;17.20;99.90;;;;;;5016161;28;20049;-69
2023/06/04 09:18:53;;;;;;;6.13;1.80;;;17.20;99.90;;;;;;5017780;28;20080;-66
2023/06/04 09:21:19;;;;;;;3.17;1.58;;;17.10;99.90;;;;;;5020093;28;20324;-76
2023/06/04 09:23:48;;;;;;;6.55;1.48;;;17.10;99.90;;;;;;5021589;28;20044;-76
2023/06/04 09:26:15;;;;;;;3.42;1.63;;;17.30;99.90;;;;;;5034568;28;20306;-67
2023/06/04 09:28:45;;;;;;;2.67;1.83;;;17.30;99.90;;;;;;5016630;28;20072;-66
2023/06/04 09:31:17;;;;;;;7.03;1.65;;;17.00;99.90;;;;;;5016165;28;20421;-68
2023/06/04 09:33:50;;;;;;;3.60;1.75;;;17.20;99.90;;;;;;5020544;28;20033;-68
2023/06/04 09:36:16;;;;;;;2.38;1.60;;;17.20;99.90;;;;;;5016572;28;20037;-68
2023/06/04 09:38:43;;;;;;;3.78;1.85;;;17.30;99.90;;;;;;5018835;28;20022;-66
2023/06/04 09:41:13;;;;;;;4.28;1.63;;;17.40;99.90;;;;;;5025139;28;20045;-67
2023/06/04 09:43:40;;;;;;;3.67;2.58;;;17.20;99.90;;;;;;5034964;28;20032;-68
2023/06/04 09:46:10;;;;;;;3.97;1.70;;;17.20;99.90;;;;;;5022227;28;20450;-68
2023/06/04 09:48:36;;;;;;;5.43;2.13;;;17.40;99.90;;;;;;5016268;28;20022;-79
2023/06/04 09:51:14;;;;;;;5.80;1.70;;;17.70;99.90;;;;;;5014529;28;20032;-67
2023/06/04 09:53:41;;;;;;;9.75;1.80;;;17.60;99.90;;;;;;5014921;28;20034;-67
2023/06/04 09:56:11;;;;;;;6.63;1.60;;;17.60;99.90;;;;;;5020490;28;20073;-67
2023/06/04 09:58:38;;;;;;;4.22;1.75;;;17.50;99.90;;;;;;5018880;28;20463;-67
2023/06/04 10:01:06;;;;;;;4.82;1.83;;;17.60;99.90;;;;;;5019329;28;20030;-67
2023/06/04 10:03:36;;;;;;;4.47;2.45;;;17.50;99.90;;;;;;5023787;28;20083;-67
2023/06/04 10:06:06;;;;;;;6.75;2.08;;;17.50;99.90;;;;;;5030336;28;20044;-68
2023/06/04 10:08:33;;;;;;;5.88;2.05;;;17.70;99.90;;;;;;5026644;28;20312;-68
2023/06/04 10:11:01;;;;;;;3.78;1.63;;;17.70;99.90;;;;;;5021564;28;20018;-68
2023/06/04 10:13:30;;;;;;;2.70;1.70;;;17.90;99.90;;;;;;5020898;28;20366;-66
2023/06/04 10:16:00;;;;;;;2.33;1.60;;;18.00;99.90;;;;;;5021444;28;20420;-67
2023/06/04 10:18:29;;;;;;;10.85;2.53;;;18.10;99.90;;;;;;5023998;28;20038;-67
2023/06/04 10:20:56;;;;;;;4.60;2.15;;;17.60;99.90;;;;;;5020067;28;20018;-79
2023/06/04 10:23:24;;;;;;;2.88;1.63;;;17.70;99.90;;;;;;5019187;28;20032;-78
2023/06/04 10:25:52;;;;;;;4.78;1.20;;;17.60;99.90;;;;;;5024614;28;20026;-67
2023/06/04 10:28:19;;;;;;;4.70;1.98;;;17.50;99.90;;;;;;5021234;28;20317;-68
2023/06/04 10:30:46;;;;;;;3.97;2.20;;;17.50;99.90;;;;;;5024813;28;20025;-67
2023/06/04 10:33:13;;;;;;;4.10;1.85;;;17.50;99.90;;;;;;5021082;28;20294;-67
2023/06/04 10:35:39;;;;;;;4.80;2.20;;;17.40;99.90;;;;;;5024695;28;20021;-67
2023/06/04 10:38:13;;;;;;;4.47;2.20;;;17.50;99.90;;;;;;5019542;28;20033;-66
2023/06/04 10:40:39;;;;;;;4.22;1.95;;;17.50;99.90;;;;;;5021231;28;20061;-66
2023/06/04 10:43:10;;;;;;;4.43;2.65;;;17.60;99.90;;;;;;5024010;28;20105;-67
2023/06/04 10:45:36;;;;;;;4.90;2.35;;;17.50;99.90;;;;;;5023530;28;20034;-68
2023/06/04 10:48:04;;;;;;;4.90;2.42;;;17.50;99.90;;;;;;5026764;28;20091;-68
2023/06/04 10:50:31;;;;;;;3.78;2.38;;;17.50;99.90;;;;;;5026288;28;20420;-80
2023/06/04 10:52:58;;;;;;;4.05;2.20;;;17.60;99.90;;;;;;5024226;28;20108;-68
2023/06/04 10:55:25;;;;;;;5.25;2.40;;;17.40;99.90;;;;;;5023384;28;20038;-70
2023/06/04 10:57:55;;;;;;;5.80;2.38;;;17.40;99.90;;;;;;5017598;28;20615;-80
2023/06/04 11:00:22;;;;;;;3.88;2.20;;;17.50;99.90;;;;;;5018958;28;20038;-68
2023/06/04 11:03:07;;;;;;;7.78;1.80;;;17.60;99.90;;;;;;5029251;28;20028;-68
2023/06/04 11:05:38;;;;;;;3.20;1.93;;;17.50;99.90;;;;;;5016109;28;20040;-68
2023/06/04 11:08:05;;;;;;;3.55;2.03;;;17.60;99.90;;;;;;5019107;28;20034;-66
2023/06/04 11:10:42;;;;;;;6.28;2.00;;;17.60;99.90;;;;;;5034083;28;20033;-68
2023/06/04 11:13:08;;;;;;;2.20;1.65;;;17.60;99.90;;;;;;5032674;28;20038;-67
2023/06/04 11:15:42;;;;;;;3.10;1.80;;;17.60;99.90;;;;;;5027898;28;20033;-67
2023/06/04 11:18:08;;;;;;;5.13;2.45;;;17.60;99.90;;;;;;5021778;28;20036;-67
2023/06/04 11:20:34;;;;;;;5.35;1.38;;;17.60;99.90;;;;;;5034526;28;20025;-68
2023/06/04 11:23:02;;;;;;;4.53;1.33;;;17.70;99.90;;;;;;5034933;28;20293;-75
2023/06/04 11:25:30;;;;;;;1.98;1.35;;;17.70;99.90;;;;;;5022901;28;20018;-68
2023/06/04 11:27:57;;;;;;;2.13;1.52;;;17.90;99.90;;;;;;5025143;28;20389;-68
2023/06/04 11:30:24;;;;;;;6.35;1.90;;;17.90;99.90;;;;;;5023516;28;20026;-68
2023/06/04 11:32:50;;;;;;;4.18;2.17;;;17.90;99.90;;;;;;5026275;28;20036;-67
2023/06/04 11:35:16;;;;;;;2.95;1.52;;;18.00;99.90;;;;;;5023245;28;20034;-68
2023/06/04 11:37:52;;;;;;;3.07;1.63;;;18.10;99.90;;;;;;5028480;28;20482;-68
2023/06/04 11:40:18;;;;;;;;;;;18.00;99.90;;;;;;5014306;28;20032;-68
2023/06/04 11:42:46;;;;;;;2.25;1.05;;;18.00;99.90;;;;;;5015400;28;20000;-67
2023/06/04 11:45:17;;;;;;;3.88;1.60;;;17.80;99.90;;;;;;5011632;28;20377;-74
2023/06/04 11:47:55;;;;;;;2.17;1.10;;;17.90;99.90;;;;;;5010888;28;20037;-75
2023/06/04 11:50:21;;;;;;;4.05;1.15;;;17.90;99.90;;;;;;5014446;28;20030;-68
2023/06/04 11:52:48;;;;;;;1.17;0.88;;;18.10;99.90;;;;;;5015727;28;20367;-66
2023/06/04 11:55:14;;;;;;;0.45;0.45;;;18.00;99.90;;;;;;5015552;28;20041;-75
2023/06/04 11:57:40;;;;;;;2.40;1.00;;;17.90;99.90;;;;;;5015904;28;20038;-75
2023/06/04 12:00:10;;;;;;;2.25;1.20;;;17.90;99.90;;;;;;5015100;28;20037;-67
2023/06/04 12:02:37;;;;;;;3.42;0.88;;;17.90;99.90;;;;;;5015806;28;20032;-70
2023/06/04 12:05:15;;;;;;;2.60;1.25;;;17.90;99.90;;;;;;5015044;28;20134;-67
2023/06/04 12:07:41;;;;;;;4.18;1.50;;;18.10;99.90;;;;;;5015688;28;20026;-68
2023/06/04 12:10:11;;;;;;;2.47;1.25;;;18.20;99.90;;;;;;5015176;28;20037;-67
2023/06/04 12:12:37;;;;;;;2.70;0.82;;;18.20;99.90;;;;;;5015737;28;20033;-68
2023/06/04 12:15:05;;;;;;;2.47;0.88;;;18.20;99.90;;;;;;5015054;28;20057;-67
2023/06/04 12:17:32;;;;;;;4.00;0.80;;;18.20;99.90;;;;;;5014971;28;20499;-67
2023/06/04 12:19:58;;;;;;;3.53;1.42;;;18.20;99.90;;;;;;5014720;28;20125;-67
2023/06/04 12:22:26;;;;;;;2.13;0.70;;;18.20;99.90;;;;;;5013863;28;20117;-66
2023/06/04 12:24:57;;;;;;;4.57;1.17;;;18.20;99.90;;;;;;5015548;28;20026;-67
2023/06/04 12:27:25;;;;;;;2.92;0.75;;;18.30;99.90;;;;;;5015249;28;20022;-68
2023/06/04 12:29:58;;;;;;;3.22;0.70;;;18.40;99.90;;;;;;5013803;28;20021;-69
2023/06/04 12:32:23;;;;;;;1.05;0.82;;;18.50;99.90;;;;;;5014380;28;20026;-75
2023/06/04 12:34:49;;;;;;;5.33;1.27;;;18.50;99.90;;;;;;5015074;28;20029;-73
2023/06/04 12:37:15;;;;;;;3.23;0.73;;;18.60;99.90;;;;;;5015088;28;20048;-68
2023/06/04 12:39:42;;;;;;;2.33;0.67;;;18.60;99.90;;;;;;5016900;28;20355;-67
2023/06/04 12:42:09;;;;;;;0.40;0.40;;;18.50;99.90;;;;;;5019303;28;20022;-67
2023/06/04 12:44:41;;;;;;;0.55;0.55;;;18.40;99.90;;;;;;5024677;28;20029;-67
2023/06/04 12:47:08;;;;;;;1.05;0.55;;;18.40;99.90;;;;;;5016758;28;20316;-68
2023/06/04 12:49:34;;;;;;;1.55;0.93;;;18.40;99.90;;;;;;5016757;28;20018;-67